Time;durP1;ratioP1;P1;durP2;ratioP2;P2;SDS_P1;SDS_P2;PMS_P1;PMS_P2;Temp;Humidity;BMP_temperature;BMP_pressure;BME280_temperature;BME280_humidity;BME280_pressure;Samples;Min_cycle;Max_cycle;Signal;HPM_P1;HPM_P2
2021/12/01 00:01:36;;;;;;;0.73;0.60;;;;;;;2.89;88.71;99204.63;5050565;28;20193;-56
2021/12/01 00:04:03;;;;;;;0.27;0.27;;;;;;;3.12;87.91;99208.81;5050470;28;20323;-56
2021/12/01 00:06:30;;;;;;;0.40;0.40;;;;;;;3.25;87.21;99200.22;5050687;28;20236;-55
2021/12/01 00:08:57;;;;;;;0.30;0.30;;;;;;;3.31;87.01;99194.19;5050506;28;20201;-56
2021/12/01 00:11:24;;;;;;;0.07;0.07;;;;;;;3.34;86.70;99184.78;5050598;28;20221;-57
2021/12/01 00:13:51;;;;;;;1.90;0.87;;;;;;;3.35;86.31;99186.47;5050249;28;20284;-58
2021/12/01 00:16:18;;;;;;;0.20;0.20;;;;;;;3.34;86.12;99191.63;5050191;28;20220;-58
2021/12/01 00:18:46;;;;;;;1.60;1.03;;;;;;;3.38;85.85;99185.63;5050126;28;20250;-58
2021/12/01 00:21:13;;;;;;;0.20;0.20;;;;;;;3.32;86.76;99177.94;5050290;28;20200;-58
2021/12/01 00:23:40;;;;;;;0.00;0.00;;;;;;;3.39;86.70;99185.59;5050260;28;20232;-57
2021/12/01 00:26:08;;;;;;;0.00;0.00;;;;;;;3.43;86.38;99196.69;5050229;28;20297;-58
2021/12/01 00:28:35;;;;;;;0.00;0.00;;;;;;;3.41;87.08;99199.25;5050218;28;20213;-58
2021/12/01 00:31:03;;;;;;;0.97;0.97;;;;;;;3.40;87.20;99215.50;5050206;28;20194;-58
2021/12/01 00:33:31;;;;;;;0.37;0.37;;;;;;;3.30;87.32;99208.72;5050294;28;20676;-58
2021/12/01 00:35:59;;;;;;;0.10;0.10;;;;;;;3.01;88.43;99193.47;5050148;28;20695;-58
2021/12/01 00:38:28;;;;;;;0.13;0.13;;;;;;;3.03;88.30;99206.28;5049915;28;20313;-57
2021/12/01 00:40:55;;;;;;;0.00;0.00;;;;;;;2.96;88.18;99182.38;5049987;28;20198;-56
2021/12/01 00:43:25;;;;;;;0.43;0.43;;;;;;;2.77;88.21;99163.66;5050068;28;20230;-59
2021/12/01 00:45:56;;;;;;;1.17;0.27;;;;;;;3.00;88.96;99180.66;5050106;28;20195;-58
2021/12/01 00:48:23;;;;;;;0.23;0.23;;;;;;;2.95;88.08;99188.34;5050508;28;20673;-58
2021/12/01 00:50:51;;;;;;;0.77;0.40;;;;;;;2.95;90.25;99188.34;5050046;28;20196;-57
2021/12/01 00:53:20;;;;;;;0.60;0.43;;;;;;;2.84;89.22;99187.53;5049816;28;20201;-58
2021/12/01 00:55:47;;;;;;;0.10;0.10;;;;;;;2.99;88.88;99181.50;5049885;28;20205;-57
2021/12/01 00:58:16;;;;;;;0.20;0.20;;;;;;;3.01;88.65;99187.50;5049845;28;20231;-56
2021/12/01 01:00:44;;;;;;;0.00;0.00;;;;;;;3.02;89.36;99191.75;5049871;28;20234;-55
2021/12/01 01:03:11;;;;;;;0.30;0.30;;;;;;;2.98;89.23;99197.75;5049657;28;20230;-55
2021/12/01 01:05:39;;;;;;;0.30;0.30;;;;;;;2.92;88.44;99189.22;5049750;28;20203;-57
2021/12/01 01:08:07;;;;;;;0.00;0.00;;;;;;;3.02;88.55;99178.94;5049808;28;20202;-57
2021/12/01 01:16:25;;;;;;;0.10;0.10;;;;;;;3.10;88.28;99183.16;5049752;28;20613;-57
2021/12/01 01:18:55;;;;;;;1.17;0.47;;;;;;;3.09;88.13;99185.75;5049886;28;20229;-58
2021/12/01 01:21:23;;;;;;;0.20;0.20;;;;;;;3.03;88.38;99165.25;5049735;28;20205;-57
2021/12/01 01:23:51;;;;;;;0.77;0.63;;;;;;;3.03;88.94;99155.00;5049659;28;20292;-58
2021/12/01 01:26:21;;;;;;;1.10;1.10;;;;;;;3.07;89.07;99156.69;5050067;28;20671;-56
2021/12/01 01:28:48;;;;;;;0.17;0.17;;;;;;;3.03;89.00;99131.94;5053468;28;20285;-56
2021/12/01 01:31:19;;;;;;;0.37;0.37;;;;;;;3.08;88.77;99137.88;5053371;28;20199;-57
2021/12/01 01:33:46;;;;;;;0.10;0.10;;;;;;;2.87;89.05;99139.69;5053417;28;20196;-56
2021/12/01 01:36:14;;;;;;;0.53;0.53;;;;;;;2.74;90.32;99106.41;5053421;28;20206;-56
2021/12/01 01:38:41;;;;;;;0.00;0.00;;;;;;;2.75;89.78;99114.09;5053126;28;20232;-56
2021/12/01 01:41:10;;;;;;;0.77;0.77;;;;;;;2.67;90.22;99105.59;5053353;28;20200;-57
2021/12/01 01:43:40;;;;;;;0.20;0.20;;;;;;;2.51;91.40;99104.78;5053128;28;20197;-57
2021/12/01 01:46:08;;;;;;;0.50;0.50;;;;;;;2.36;91.91;99099.72;5053225;28;20208;-56
2021/12/01 01:48:45;;;;;;;1.37;0.70;;;;;;;2.21;92.93;99101.47;5053149;28;20199;-57
2021/12/01 01:51:13;;;;;;;0.00;0.00;;;;;;;2.52;91.57;99110.75;5053098;28;20246;-56
2021/12/01 01:53:40;;;;;;;0.73;0.73;;;;;;;2.66;90.14;99106.44;5052982;28;20201;-57
2021/12/01 01:56:07;;;;;;;0.63;0.63;;;;;;;2.75;90.46;99095.31;5052976;28;20208;-57
2021/12/01 01:58:35;;;;;;;0.30;0.30;;;;;;;2.82;89.49;99095.25;5052914;28;20226;-58
2021/12/01 02:01:07;;;;;;;0.13;0.10;;;;;;;2.85;88.85;99091.84;5052947;28;20207;-57
2021/12/01 02:03:37;;;;;;;0.60;0.60;;;;;;;2.88;88.54;99089.28;5052701;28;20319;-58
2021/12/01 02:06:04;;;;;;;1.13;0.97;;;;;;;2.91;88.37;99099.53;5052887;28;20193;-58
2021/12/01 02:08:32;;;;;;;0.33;0.33;;;;;;;2.93;88.46;99093.50;5052698;28;20279;-57
2021/12/01 02:11:01;;;;;;;0.10;0.10;;;;;;;2.96;87.97;99097.78;5052791;28;20255;-58
2021/12/01 02:13:29;;;;;;;0.57;0.57;;;;;;;2.96;88.34;99089.22;5053027;28;20194;-58
2021/12/01 02:15:58;;;;;;;1.07;0.17;;;;;;;2.99;88.21;99096.91;5052824;28;20197;-57
2021/12/01 02:18:26;;;;;;;0.20;0.20;;;;;;;2.98;88.37;99115.72;5052382;28;20228;-57
2021/12/01 02:21:06;;;;;;;0.10;0.10;;;;;;;2.96;88.24;99120.00;5053016;28;20307;-58
2021/12/01 02:23:35;;;;;;;0.30;0.30;;;;;;;2.93;88.37;99119.13;5052610;28;20684;-58
2021/12/01 02:26:02;;;;;;;0.10;0.10;;;;;;;2.84;88.85;99121.75;5052672;28;20222;-59
2021/12/01 02:28:30;;;;;;;0.90;0.90;;;;;;;2.90;88.86;99137.13;5052544;28;20288;-58
2021/12/01 02:30:57;;;;;;;0.10;0.10;;;;;;;2.89;88.59;99132.00;5052496;28;20232;-58
2021/12/01 02:33:25;;;;;;;0.10;0.10;;;;;;;2.93;88.79;99123.44;5052296;28;20199;-59
2021/12/01 02:35:52;;;;;;;0.30;0.30;;;;;;;2.87;88.77;99116.63;5052176;28;20285;-57
2021/12/01 02:38:21;;;;;;;1.17;0.83;;;;;;;2.89;88.98;99121.75;5051410;28;20256;-57
2021/12/01 02:40:48;;;;;;;0.63;0.60;;;;;;;2.85;88.34;99108.06;5052214;28;20223;-56
2021/12/01 02:43:16;;;;;;;0.40;0.40;;;;;;;2.85;88.79;99110.63;5052271;28;20285;-56
2021/12/01 02:45:44;;;;;;;0.63;0.63;;;;;;;2.80;88.72;99117.50;5052143;28;20723;-56
2021/12/01 02:48:13;;;;;;;1.13;1.13;;;;;;;2.80;89.18;99102.13;5051973;28;20254;-56
2021/12/01 02:50:42;;;;;;;0.10;0.10;;;;;;;2.76;89.28;99114.97;5052270;28;20554;-56
2021/12/01 02:53:10;;;;;;;1.17;0.97;;;;;;;2.71;89.64;99114.13;5052115;28;20288;-56
2021/12/01 02:55:46;;;;;;;0.00;0.00;;;;;;;2.73;89.17;99114.97;5052090;28;20280;-56
2021/12/01 02:58:13;;;;;;;4.27;0.90;;;;;;;2.71;89.43;99120.09;5051850;28;20228;-57
2021/12/01 03:00:41;;;;;;;0.50;0.40;;;;;;;2.69;89.48;99108.16;5051852;28;20211;-58
2021/12/01 03:03:08;;;;;;;0.47;0.47;;;;;;;2.62;90.37;99117.56;5051763;28;20271;-57
2021/12/01 03:05:35;;;;;;;0.50;0.20;;;;;;;2.68;89.25;99109.88;5051964;28;20654;-58
2021/12/01 03:08:02;;;;;;;0.40;0.40;;;;;;;2.69;89.20;99109.00;5051932;28;20197;-56
2021/12/01 03:10:29;;;;;;;0.43;0.43;;;;;;;2.71;89.70;99112.41;5051911;28;20716;-56
2021/12/01 03:12:58;;;;;;;2.00;0.90;;;;;;;2.76;89.12;99123.50;5051565;28;20203;-56
2021/12/01 03:15:25;;;;;;;1.10;0.43;;;;;;;2.78;89.12;99128.63;5051539;28;20255;-56
2021/12/01 03:17:51;;;;;;;0.30;0.30;;;;;;;2.80;88.11;99108.97;5051686;28;20673;-55
2021/12/01 03:20:22;;;;;;;0.00;0.00;;;;;;;2.78;87.46;99098.72;5051395;28;20287;-56
2021/12/01 03:22:49;;;;;;;0.20;0.20;;;;;;;2.81;88.07;99088.47;5051757;28;20287;-56
2021/12/01 03:25:16;;;;;;;0.93;0.93;;;;;;;2.88;87.79;99097.81;5051279;28;20205;-55
2021/12/01 03:27:44;;;;;;;0.33;0.33;;;;;;;2.90;88.19;99103.78;5051230;28;20192;-57
2021/12/01 03:30:13;;;;;;;0.10;0.10;;;;;;;3.01;86.85;99098.63;5051477;28;20193;-57
2021/12/01 03:32:42;;;;;;;0.30;0.30;;;;;;;3.06;85.57;99093.44;5051100;28;20197;-57
2021/12/01 03:35:11;;;;;;;0.10;0.10;;;;;;;3.06;85.53;99103.69;5050983;28;20283;-58
2021/12/01 03:37:40;;;;;;;1.30;0.57;;;;;;;3.18;83.74;99111.31;5050969;28;20285;-58
2021/12/01 03:40:09;;;;;;;0.20;0.20;;;;;;;3.26;84.05;99127.53;5050666;28;20223;-58
2021/12/01 03:42:36;;;;;;;0.50;0.50;;;;;;;3.36;83.99;99118.94;5051148;28;20721;-58
2021/12/01 03:45:04;;;;;;;0.60;0.60;;;;;;;3.33;83.73;99115.53;5030996;28;20199;-59
2021/12/01 03:47:32;;;;;;;0.20;0.20;;;;;;;3.34;84.27;99112.09;5036059;28;20672;-59
2021/12/01 03:50:00;;;;;;;0.07;0.07;;;;;;;3.34;83.71;99119.78;5049330;28;20193;-59
2021/12/01 03:52:27;;;;;;;2.53;0.93;;;;;;;3.36;82.79;99118.94;5050673;28;20565;-59
2021/12/01 03:54:54;;;;;;;0.30;0.30;;;;;;;3.38;82.97;99124.06;5046805;28;20259;-58
2021/12/01 03:57:21;;;;;;;0.10;0.10;;;;;;;3.41;84.47;99122.28;5048557;28;20245;-55
2021/12/01 03:59:48;;;;;;;0.10;0.10;;;;;;;3.39;83.08;99124.00;5050148;28;20219;-56
2021/12/01 04:02:16;;;;;;;0.17;0.17;;;;;;;3.45;83.22;99118.00;5049464;28;20214;-55
2021/12/01 04:04:44;;;;;;;0.23;0.20;;;;;;;3.58;83.27;99130.75;5049458;28;20228;-56
2021/12/01 04:07:11;;;;;;;0.30;0.30;;;;;;;3.58;83.83;99135.88;5050482;28;20292;-56
2021/12/01 04:09:41;;;;;;;6.23;0.93;;;;;;;3.68;82.94;99131.53;5050690;28;20296;-56
2021/12/01 04:12:09;;;;;;;1.60;1.50;;;;;;;3.51;83.74;99139.34;5049478;28;20287;-55
2021/12/01 04:14:36;;;;;;;0.30;0.30;;;;;;;3.45;84.12;99128.28;5049843;28;20660;-55
2021/12/01 04:17:04;;;;;;;0.00;0.00;;;;;;;3.44;83.98;99141.97;5049083;28;20207;-59
2021/12/01 04:19:31;;;;;;;0.67;0.67;;;;;;;3.56;83.97;99147.88;5046432;28;20307;-57
2021/12/01 04:21:59;;;;;;;0.17;0.17;;;;;;;3.62;83.80;99139.25;5048619;28;20654;-59
2021/12/01 04:24:26;;;;;;;0.40;0.40;;;;;;;3.46;84.52;99143.66;5048693;28;20301;-57
2021/12/01 04:26:53;;;;;;;0.20;0.20;;;;;;;3.35;84.74;99127.47;5048907;28;20649;-58
2021/12/01 04:29:20;;;;;;;0.17;0.17;;;;;;;3.44;84.51;99136.81;5048577;28;20193;-55
2021/12/01 04:31:48;;;;;;;0.03;0.03;;;;;;;3.29;85.84;99142.88;5048824;28;20291;-55
2021/12/01 04:34:15;;;;;;;0.30;0.30;;;;;;;3.36;85.03;99152.28;5049065;28;20218;-55
2021/12/01 04:36:43;;;;;;;0.73;0.73;;;;;;;3.44;85.18;99139.38;5046662;28;20298;-54
2021/12/01 04:39:14;;;;;;;1.90;1.03;;;;;;;3.49;86.24;99138.50;5048124;28;20251;-57
2021/12/01 04:41:50;;;;;;;0.47;0.47;;;;;;;3.40;85.94;99140.25;5047424;28;20281;-59
2021/12/01 04:44:19;;;;;;;0.43;0.43;;;;;;;3.44;85.29;99129.13;5045152;28;20281;-59
2021/12/01 04:46:47;;;;;;;0.30;0.30;;;;;;;3.33;86.06;99124.06;5045502;28;20271;-59
2021/12/01 04:49:16;;;;;;;1.03;1.03;;;;;;;3.50;85.86;99114.53;5039151;28;20217;-59
2021/12/01 04:51:45;;;;;;;0.03;0.03;;;;;;;3.62;85.18;99119.59;5040993;28;20259;-58
2021/12/01 04:54:14;;;;;;;2.23;1.73;;;;;;;3.69;85.29;99111.84;5046354;28;20244;-58
2021/12/01 04:56:42;;;;;;;0.77;0.40;;;;;;;3.56;85.72;99108.53;5044762;28;20231;-59
2021/12/01 04:59:11;;;;;;;1.03;1.03;;;;;;;3.41;87.34;99113.75;5045696;28;20229;-60
2021/12/01 05:01:40;;;;;;;1.07;0.50;;;;;;;3.38;86.43;99126.63;5049261;28;20223;-59
2021/12/01 05:04:08;;;;;;;0.10;0.10;;;;;;;3.37;86.08;99136.03;5051229;28;20261;-60
2021/12/01 05:06:35;;;;;;;0.57;0.57;;;;;;;3.29;86.18;99119.81;5055595;28;20229;-60
2021/12/01 05:09:02;;;;;;;1.60;0.53;;;;;;;3.26;86.56;99130.09;5055289;28;20324;-61
2021/12/01 05:11:30;;;;;;;0.20;0.20;;;;;;;3.17;88.31;99118.16;5053565;28;20224;-57
2021/12/01 05:13:57;;;;;;;1.33;1.23;;;;;;;3.03;88.79;99111.44;5053449;28;20227;-57
2021/12/01 05:16:24;;;;;;;0.60;0.60;;;;;;;2.98;89.84;99119.13;5053539;28;20347;-56
2021/12/01 05:18:52;;;;;;;0.17;0.17;;;;;;;3.04;89.29;99134.50;5053773;28;20227;-58
2021/12/01 05:21:19;;;;;;;0.90;0.73;;;;;;;3.09;89.95;99137.88;5054688;28;20216;-58
2021/12/01 05:23:46;;;;;;;2.93;1.00;;;;;;;3.17;88.78;99137.81;5054825;28;20622;-57
2021/12/01 05:26:13;;;;;;;0.30;0.30;;;;;;;3.20;88.24;99138.66;5053612;28;20294;-57
2021/12/01 05:28:42;;;;;;;0.30;0.30;;;;;;;3.11;88.29;99137.88;5054325;28;20221;-56
2021/12/01 05:31:10;;;;;;;1.13;0.63;;;;;;;3.16;87.73;99133.59;5054086;28;20255;-58
2021/12/01 05:33:39;;;;;;;0.47;0.47;;;;;;;3.20;88.27;99137.81;5055311;28;20230;-57
2021/12/01 05:36:06;;;;;;;0.10;0.10;;;;;;;3.20;87.49;99137.81;5055528;28;20713;-56
2021/12/01 05:38:33;;;;;;;0.20;0.20;;;;;;;3.31;86.76;99141.19;5055510;28;20310;-57
2021/12/01 05:41:02;;;;;;;1.63;1.53;;;;;;;3.12;86.62;99131.88;5054586;28;20305;-57
2021/12/01 05:43:29;;;;;;;1.43;1.33;;;;;;;3.06;86.88;99129.34;5055717;28;20263;-56
2021/12/01 05:45:57;;;;;;;1.10;1.10;;;;;;;3.13;87.58;99134.44;5055332;28;20310;-57
2021/12/01 05:48:24;;;;;;;1.33;0.87;;;;;;;3.21;87.56;99129.28;5055563;28;20223;-57
2021/12/01 05:50:52;;;;;;;0.37;0.37;;;;;;;3.13;87.10;99136.16;5055318;28;20306;-57
2021/12/01 05:53:19;;;;;;;0.60;0.60;;;;;;;3.07;87.61;99137.03;5055531;28;20766;-58
2021/12/01 05:55:46;;;;;;;0.00;0.00;;;;;;;2.94;88.41;99140.50;5054686;28;20255;-57
2021/12/01 05:58:13;;;;;;;0.20;0.20;;;;;;;2.92;88.58;99150.78;5055136;28;20308;-57
2021/12/01 06:00:40;;;;;;;0.97;0.97;;;;;;;3.06;87.76;99150.69;5055244;28;20235;-57
2021/12/01 06:03:08;;;;;;;0.50;0.23;;;;;;;3.04;87.23;99170.38;5053867;28;20258;-57
2021/12/01 06:05:36;;;;;;;0.10;0.10;;;;;;;3.04;87.73;99172.94;5055431;28;20224;-57
2021/12/01 06:08:04;;;;;;;0.00;0.00;;;;;;;3.10;87.88;99167.78;5055172;28;20222;-56
2021/12/01 06:10:31;;;;;;;1.07;0.60;;;;;;;3.19;87.48;99164.31;5054639;28;20310;-57
2021/12/01 06:12:58;;;;;;;0.50;0.50;;;;;;;3.21;87.70;99165.16;5053472;28;20250;-56
2021/12/01 06:15:25;;;;;;;0.57;0.43;;;;;;;3.29;86.97;99160.84;5051811;28;20299;-58
2021/12/01 06:17:52;;;;;;;0.60;0.60;;;;;;;3.58;86.88;99165.81;5052014;28;20227;-57
2021/12/01 06:20:20;;;;;;;0.30;0.30;;;;;;;3.80;86.00;99157.13;5051546;28;20311;-56
2021/12/01 06:22:47;;;;;;;2.43;1.17;;;;;;;3.97;85.59;99167.25;5051833;28;20318;-56
2021/12/01 06:25:14;;;;;;;1.70;1.17;;;;;;;4.10;85.23;99176.56;5051344;28;20307;-56
2021/12/01 06:27:42;;;;;;;0.73;0.67;;;;;;;4.22;84.40;99170.47;5052080;28;20314;-58
2021/12/01 06:30:10;;;;;;;0.40;0.40;;;;;;;4.33;84.77;99178.91;5052076;28;20700;-57
2021/12/01 06:32:37;;;;;;;0.87;0.87;;;;;;;4.51;84.23;99178.75;5052215;28;20308;-56
2021/12/01 06:35:05;;;;;;;0.73;0.73;;;;;;;4.64;83.65;99174.31;5051375;28;20223;-57
2021/12/01 06:37:34;;;;;;;4.00;1.70;;;;;;;4.79;82.26;99171.59;5051549;28;20709;-58
2021/12/01 06:40:01;;;;;;;0.23;0.23;;;;;;;4.98;82.06;99177.38;5051244;28;20251;-58
2021/12/01 06:42:28;;;;;;;0.10;0.10;;;;;;;5.15;80.37;99187.47;5051449;28;20217;-58
2021/12/01 06:44:55;;;;;;;1.77;1.67;;;;;;;5.30;80.24;99195.00;5051729;28;20684;-55
2021/12/01 06:47:22;;;;;;;1.27;0.87;;;;;;;5.48;78.21;99193.03;5051568;28;20738;-57
2021/12/01 06:49:48;;;;;;;0.80;0.80;;;;;;;5.62;75.58;99207.44;5051391;28;20259;-56
2021/12/01 06:52:16;;;;;;;0.50;0.50;;;;;;;5.78;74.99;99217.50;5051277;28;20303;-57
2021/12/01 06:54:44;;;;;;;0.20;0.20;;;;;;;5.95;73.55;99208.72;5051071;28;20615;-58
2021/12/01 06:57:11;;;;;;;1.37;0.63;;;;;;;6.13;72.82;99213.56;5051155;28;20300;-57
2021/12/01 06:59:38;;;;;;;0.60;0.60;;;;;;;6.36;70.84;99220.94;5051485;28;20254;-57
2021/12/01 07:02:05;;;;;;;0.10;0.10;;;;;;;6.61;70.33;99219.66;5051106;28;20703;-56
2021/12/01 07:04:32;;;;;;;0.77;0.33;;;;;;;6.86;69.12;99232.97;5050930;28;20375;-58
2021/12/01 07:06:59;;;;;;;0.50;0.40;;;;;;;6.95;69.07;99240.53;5050921;28;20346;-58
2021/12/01 07:09:27;;;;;;;0.50;0.40;;;;;;;7.00;69.17;99219.81;5051023;28;20354;-58
2021/12/01 07:11:55;;;;;;;0.47;0.47;;;;;;;7.22;68.80;99227.06;5050884;28;20256;-58
2021/12/01 07:14:23;;;;;;;0.30;0.30;;;;;;;7.32;66.98;99221.75;5050234;28;20710;-57
2021/12/01 07:16:50;;;;;;;0.20;0.20;;;;;;;7.33;66.97;99202.81;5049610;28;20231;-57
2021/12/01 07:19:17;;;;;;;0.40;0.40;;;;;;;7.49;67.94;99207.59;5049560;28;20247;-57
2021/12/01 07:21:44;;;;;;;1.30;0.60;;;;;;;7.59;67.56;99210.81;5049737;28;20208;-57
2021/12/01 07:24:11;;;;;;;0.30;0.30;;;;;;;7.66;68.04;99207.25;5049300;28;20224;-58
2021/12/01 07:26:39;;;;;;;0.20;0.20;;;;;;;7.62;68.30;99203.03;5049855;28;20765;-58
2021/12/01 07:29:07;;;;;;;1.60;0.63;;;;;;;7.63;67.67;99202.16;5049385;28;20226;-57
2021/12/01 07:31:35;;;;;;;0.17;0.17;;;;;;;7.63;67.63;99202.16;5050089;28;20235;-59
2021/12/01 07:34:02;;;;;;;1.23;1.13;;;;;;;7.65;67.18;99205.53;5050816;28;20226;-57
2021/12/01 07:36:29;;;;;;;0.47;0.20;;;;;;;7.55;66.61;99204.91;5051538;28;20195;-59
2021/12/01 07:38:58;;;;;;;0.20;0.20;;;;;;;7.64;67.15;99215.03;5051350;28;20199;-59
2021/12/01 07:41:25;;;;;;;0.10;0.10;;;;;;;7.53;68.44;99214.41;5051356;28;20311;-58
2021/12/01 07:43:53;;;;;;;0.47;0.33;;;;;;;7.60;68.10;99213.38;5050895;28;20287;-58
2021/12/01 07:46:21;;;;;;;1.10;0.80;;;;;;;7.57;67.57;99205.69;5051575;28;20291;-57
2021/12/01 07:48:48;;;;;;;0.47;0.30;;;;;;;7.53;68.00;99218.72;5051205;28;20288;-58
2021/12/01 07:51:15;;;;;;;0.30;0.30;;;;;;;7.42;68.37;99197.44;5050949;28;20283;-57
2021/12/01 07:53:42;;;;;;;0.60;0.60;;;;;;;7.50;68.06;99200.72;5040902;28;20262;-59
2021/12/01 07:56:09;;;;;;;1.00;0.77;;;;;;;7.59;67.67;99218.56;5048161;28;20248;-59
2021/12/01 07:58:36;;;;;;;0.67;0.67;;;;;;;7.56;67.74;99211.75;5050749;28;20292;-59
2021/12/01 08:01:03;;;;;;;1.10;0.70;;;;;;;7.43;67.80;99214.63;5050975;28;20307;-59
2021/12/01 08:03:32;;;;;;;0.17;0.17;;;;;;;7.49;67.24;99201.59;5050660;28;20230;-59
2021/12/01 08:05:59;;;;;;;0.80;0.43;;;;;;;7.44;68.07;99190.53;5051000;28;20641;-58
2021/12/01 08:08:29;;;;;;;1.50;0.20;;;;;;;7.35;68.77;99196.69;5050663;28;20205;-59
2021/12/01 08:10:56;;;;;;;0.30;0.30;;;;;;;7.41;69.28;99188.00;5050781;28;20328;-56
2021/12/01 08:13:23;;;;;;;0.13;0.13;;;;;;;7.37;69.31;99178.59;5050481;28;20203;-58
2021/12/01 08:15:51;;;;;;;0.73;0.73;;;;;;;7.37;69.09;99170.88;5050838;28;20769;-59
2021/12/01 08:18:19;;;;;;;0.40;0.40;;;;;;;7.18;69.02;99147.19;5050529;28;20287;-57
2021/12/01 08:20:47;;;;;;;0.13;0.13;;;;;;;7.26;69.00;99164.19;5050621;28;20311;-58
2021/12/01 08:23:15;;;;;;;0.10;0.10;;;;;;;7.29;69.06;99176.19;5050535;28;20196;-57
2021/12/01 08:25:41;;;;;;;0.27;0.27;;;;;;;7.24;68.86;99167.69;5050284;28;20279;-58
2021/12/01 08:28:08;;;;;;;0.30;0.30;;;;;;;7.24;69.62;99158.22;5050492;28;20218;-58
2021/12/01 08:30:35;;;;;;;0.10;0.10;;;;;;;7.46;68.77;99168.94;5050431;28;20276;-58
2021/12/01 08:33:02;;;;;;;0.13;0.13;;;;;;;7.61;68.76;99172.91;5050249;28;20279;-58
2021/12/01 08:35:30;;;;;;;0.00;0.00;;;;;;;7.69;69.01;99164.97;5050497;28;20222;-56
2021/12/01 08:37:58;;;;;;;1.90;1.23;;;;;;;7.80;68.88;99173.34;5049731;28;20318;-57
2021/12/01 08:40:26;;;;;;;0.27;0.27;;;;;;;7.87;69.24;99170.59;5050154;28;20710;-58
2021/12/01 08:42:53;;;;;;;0.20;0.20;;;;;;;7.99;68.25;99178.06;5050271;28;20204;-57
2021/12/01 08:45:20;;;;;;;0.30;0.30;;;;;;;8.08;67.99;99186.47;5050385;28;20734;-56
2021/12/01 08:47:48;;;;;;;0.60;0.60;;;;;;;8.17;67.90;99191.41;5050320;28;20204;-58
2021/12/01 08:50:15;;;;;;;0.27;0.27;;;;;;;8.23;68.21;99191.28;5050311;28;20192;-59
2021/12/01 08:52:44;;;;;;;1.30;0.93;;;;;;;8.30;68.36;99185.06;5050111;28;20299;-57
2021/12/01 08:55:13;;;;;;;0.20;0.20;;;;;;;8.37;67.97;99184.88;5050088;28;20196;-57
2021/12/01 08:57:41;;;;;;;0.20;0.20;;;;;;;8.36;67.65;99165.09;5050064;28;20290;-57
2021/12/01 09:00:10;;;;;;;0.10;0.10;;;;;;;8.52;67.40;99186.25;5049884;28;20227;-57
2021/12/01 09:02:37;;;;;;;0.20;0.20;;;;;;;8.60;67.12;99176.53;5050114;28;20702;-57
2021/12/01 09:05:04;;;;;;;0.83;0.83;;;;;;;8.69;67.34;99163.34;5049784;28;20307;-57
2021/12/01 09:07:31;;;;;;;0.30;0.30;;;;;;;8.81;67.36;99169.09;5049839;28;20280;-56
2021/12/01 09:09:58;;;;;;;0.10;0.10;;;;;;;8.79;67.26;99151.03;5050011;28;20659;-56
2021/12/01 09:12:26;;;;;;;0.20;0.20;;;;;;;8.99;67.09;99156.50;5050113;28;20688;-57
2021/12/01 09:14:55;;;;;;;0.10;0.10;;;;;;;9.08;66.19;99152.81;5049756;28;20204;-57
2021/12/01 09:17:22;;;;;;;0.33;0.30;;;;;;;9.16;65.27;99153.44;5049939;28;20277;-58
2021/12/01 09:19:49;;;;;;;1.37;0.80;;;;;;;9.20;65.01;99154.19;5050009;28;20200;-58
2021/12/01 09:22:18;;;;;;;0.10;0.10;;;;;;;9.32;65.30;99164.19;5050187;28;20216;-56
2021/12/01 09:24:45;;;;;;;0.13;0.13;;;;;;;9.44;66.01;99167.28;5049874;28;20192;-57
2021/12/01 09:27:12;;;;;;;0.10;0.10;;;;;;;9.50;66.20;99162.78;5049705;28;20296;-56
2021/12/01 09:29:40;;;;;;;0.20;0.20;;;;;;;9.60;67.24;99159.88;5049628;28;20236;-56
2021/12/01 09:32:08;;;;;;;0.20;0.20;;;;;;;9.70;66.53;99157.88;5049594;28;20199;-57
2021/12/01 09:34:35;;;;;;;0.53;0.53;;;;;;;9.78;65.97;99151.56;5049605;28;20619;-57
2021/12/01 09:37:02;;;;;;;0.70;0.50;;;;;;;9.87;66.04;99142.63;5049673;28;20254;-56
2021/12/01 09:39:29;;;;;;;0.20;0.20;;;;;;;9.82;66.34;99145.34;5049671;28;20292;-56
2021/12/01 09:41:56;;;;;;;0.10;0.10;;;;;;;9.84;66.41;99140.97;5049663;28;20595;-58
2021/12/01 09:44:23;;;;;;;0.53;0.53;;;;;;;9.89;65.93;99135.66;5049788;28;20709;-56
2021/12/01 09:46:52;;;;;;;0.30;0.30;;;;;;;9.89;66.52;99135.66;5049650;28;20291;-58
2021/12/01 09:49:19;;;;;;;0.23;0.23;;;;;;;9.83;66.48;99115.09;5051707;28;20287;-57
2021/12/01 09:51:46;;;;;;;0.10;0.10;;;;;;;9.83;66.18;99128.06;5052958;28;20207;-56
2021/12/01 09:54:13;;;;;;;0.20;0.20;;;;;;;9.88;66.54;99122.75;5052762;28;20275;-57
2021/12/01 09:56:40;;;;;;;0.00;0.00;;;;;;;9.95;66.10;99108.69;5049033;28;20209;-56
2021/12/01 09:59:08;;;;;;;1.83;0.50;;;;;;;9.96;65.57;99094.81;5053097;28;20203;-55
2021/12/01 10:01:35;;;;;;;0.20;0.20;;;;;;;10.06;65.16;99091.88;5052931;28;20745;-56
2021/12/01 10:04:03;;;;;;;0.57;0.37;;;;;;;10.15;65.40;99091.59;5052482;28;20327;-58
2021/12/01 10:06:32;;;;;;;1.40;0.40;;;;;;;10.16;65.07;99088.06;5052219;28;20295;-57
2021/12/01 10:09:03;;;;;;;0.10;0.10;;;;;;;10.26;65.26;99098.19;5052893;28;20563;-58
2021/12/01 10:11:32;;;;;;;0.20;0.20;;;;;;;10.33;65.42;99095.31;5052953;28;20219;-57
2021/12/01 10:14:00;;;;;;;1.17;0.67;;;;;;;10.48;65.24;99094.78;5052958;28;20236;-56
2021/12/01 10:16:29;;;;;;;0.13;0.13;;;;;;;10.54;64.34;99094.56;5052963;28;20236;-57
2021/12/01 10:18:57;;;;;;;1.27;0.90;;;;;;;10.60;64.97;99098.72;5052741;28;20291;-57
2021/12/01 10:21:32;;;;;;;0.40;0.40;;;;;;;10.61;65.47;99071.81;5052865;28;20221;-56
2021/12/01 10:24:02;;;;;;;0.10;0.10;;;;;;;10.85;65.34;99098.66;5052709;28;20208;-58
2021/12/01 10:26:32;;;;;;;0.20;0.20;;;;;;;10.95;64.97;99100.00;5052003;28;20295;-57
2021/12/01 10:29:01;;;;;;;0.20;0.20;;;;;;;11.03;64.36;99087.59;5052639;28;20292;-57
2021/12/01 10:31:35;;;;;;;0.40;0.40;;;;;;;11.06;64.75;99092.66;5052588;28;20279;-57
2021/12/01 10:34:20;;;;;;;0.57;0.57;;;;;;;10.97;65.13;99089.56;5052562;28;20200;-57
2021/12/01 10:36:50;;;;;;;0.50;0.50;;;;;;;10.93;65.39;99086.25;5052473;28;20219;-59
2021/12/01 10:39:18;;;;;;;0.10;0.10;;;;;;;10.91;65.49;99091.50;5052364;28;20200;-56
2021/12/01 10:41:45;;;;;;;0.37;0.37;;;;;;;10.98;65.81;99093.84;5052291;28;20228;-57
2021/12/01 10:44:13;;;;;;;0.67;0.67;;;;;;;10.97;65.68;99090.41;5052437;28;20322;-57
2021/12/01 10:46:49;;;;;;;0.83;0.83;;;;;;;10.99;65.67;99091.19;5052295;28;20289;-58
2021/12/01 10:49:16;;;;;;;0.40;0.40;;;;;;;11.01;65.70;99094.59;5052140;28;20239;-58
2021/12/01 10:51:45;;;;;;;0.70;0.70;;;;;;;10.96;66.04;99095.66;5052100;28;20272;-57
2021/12/01 10:54:19;;;;;;;0.17;0.17;;;;;;;10.84;66.79;99091.75;5041446;28;20225;-58
2021/12/01 10:56:46;;;;;;;0.30;0.30;;;;;;;10.93;66.77;99085.41;5031102;28;20229;-62
2021/12/01 10:59:15;;;;;;;1.10;0.53;;;;;;;10.86;66.73;99057.06;5039294;28;20703;-59
2021/12/01 11:01:46;;;;;;;0.33;0.33;;;;;;;10.99;66.65;99082.56;5051375;28;20323;-62
2021/12/01 11:04:13;;;;;;;0.27;0.27;;;;;;;10.85;67.17;99081.31;5050830;28;20627;-57
2021/12/01 11:06:44;;;;;;;0.43;0.43;;;;;;;10.83;66.70;99067.56;5051743;28;20323;-58
2021/12/01 11:09:14;;;;;;;0.10;0.10;;;;;;;11.07;66.57;99083.13;5051281;28;20209;-58
2021/12/01 11:11:44;;;;;;;0.50;0.43;;;;;;;11.16;67.40;99073.25;5050924;28;20650;-59
2021/12/01 11:14:13;;;;;;;0.63;0.63;;;;;;;11.24;66.71;99078.13;5050889;28;20290;-58
2021/12/01 11:16:42;;;;;;;0.93;0.47;;;;;;;11.06;66.83;99050.28;5051045;28;20679;-58
2021/12/01 11:19:10;;;;;;;0.13;0.13;;;;;;;11.11;67.72;99059.59;5050691;28;20223;-56
2021/12/01 11:21:39;;;;;;;0.70;0.70;;;;;;;11.14;67.35;99069.84;5051069;28;20335;-56
2021/12/01 11:24:08;;;;;;;0.70;0.40;;;;;;;11.21;67.83;99067.88;5050782;28;20216;-56
2021/12/01 11:26:36;;;;;;;0.73;0.57;;;;;;;11.27;66.98;99078.03;5050485;28;20243;-56
2021/12/01 11:29:08;;;;;;;0.10;0.10;;;;;;;11.34;66.61;99063.88;5050358;28;20220;-56
2021/12/01 11:31:38;;;;;;;0.20;0.20;;;;;;;11.41;66.82;99064.47;5050978;28;20783;-56
2021/12/01 11:34:09;;;;;;;0.63;0.63;;;;;;;11.36;66.55;99061.22;5050871;28;20220;-56
2021/12/01 11:36:39;;;;;;;0.27;0.27;;;;;;;11.43;66.43;99060.91;5050722;28;20216;-57
2021/12/01 11:39:10;;;;;;;0.30;0.30;;;;;;;11.51;66.60;99051.06;5050322;28;20252;-57
2021/12/01 11:41:42;;;;;;;1.30;0.60;;;;;;;11.50;66.82;99059.78;5049861;28;20737;-56
2021/12/01 11:44:12;;;;;;;0.23;0.23;;;;;;;11.54;66.14;99047.50;5050238;28;20235;-57
2021/12/01 11:46:39;;;;;;;0.70;0.70;;;;;;;11.52;66.80;99050.16;5050675;28;20606;-57
2021/12/01 11:49:09;;;;;;;0.43;0.27;;;;;;;11.60;67.43;99042.91;5050439;28;20224;-56
2021/12/01 11:51:45;;;;;;;0.10;0.10;;;;;;;11.69;66.23;99046.03;5052085;28;20607;-55